Barbados Meteorological Services
Auto gathered TAF list
Powered by Apparatus software
For Flight 4Y2103
Contact Number 1-(246)-535-0021/2/3/4/5/6
WEB: http://www.barbadosweather.org

**********************************************

2022/12/04 18:40
TAF TBPB 041700Z 0418/0518 15008KT 9999 SCT016
TEMPO 0418/0422 15015G25KT SHRA BKN014
BECMG 0500/0502 35015KT


**********************************************
2022/12/04 18:06
TAF TAPA 041700Z 0418/0518 VRB02KT 9999 FEW022


**********************************************
2022/12/04 18:18
TAF LPPR 041700Z 0418/0518 17007KT 9999 FEW020 SCT035 PROB30
TEMPO 0418/0512 6000 -RA BKN020
BECMG 0419/0421 09010KT


**********************************************
2022/12/04 18:18
TAF LPPD 041700Z 0418/0518 03010KT 9999 SCT025
BECMG 0500/0503 VRB05KT
BECMG 0510/0512 17010KT
BECMG 0515/0518 17018G30KT 5000 RA SCT012 BKN020 FEW022CB


**********************************************
2022/12/04 18:18
TAF LPLA 041704Z 0418/0518 05012KT 9999 SCT025 SCT035
BECMG 0422/0501 15008KT
TEMPO 0510/0514 17012G22KT 7000 -RADZ SCT012 BKN018
BECMG 0513/0515 18015KT
TEMPO 0514/0518 20018G28KT 4000 RADZ SCT007 BKN014 FEW022CB PROB30
TEMPO 0515/0518 2000 +TSRA SCT004 BKN007 SCT020CB


**********************************************
2022/12/04 18:18
TAF TAF LPAZ 041700Z 0418/0524 03013KT 9999 SCT025
BECMG 0502/0505 VRB05KT
BECMG 0510/0513 19012KT
BECMG 0517/0519 19017KT 5000 RA SCT012 BKN020 FEW022CB PROB30
TEMPO 0519/0524 19020G32KT 3000 TSRA BKN015 SCT018CB


**********************************************
2022/12/04 19:13
TAF
AMD LEVT 041903Z 0419/0518 23009KT 8000 FEW015 SCT040 TX09/0515Z TNM00/0421Z
TEMPO 0421/0510 3000 BCFG BKN002 BKN005 PROB40
TEMPO 0422/0509 0800 FG VV001 PROB30
TEMPO 0422/0508 0350 FZFG VV001


**********************************************
2022/12/04 18:55
TAF COR LEMD 041938Z 0418/0524 VRB05KT 9999 SCT040 TX09/0515Z TN01/0506Z PROB40
TEMPO 0419/0524 BKN014 PROB40
TEMPO 0419/0509 3000 BR BKN010 PROB30
TEMPO 0422/0508 0200 FG VV001 PROB40
TEMPO 0509/0524 3000 RA BKN012


**********************************************
2022/12/04 18:37
TAF COR ELLX 041700Z 0418/0524 07006KT 5000 BR OVC004
TEMPO 0418/0422 2000 -SN BKN002 PROB30
TEMPO 0418/0420 -FZRA
TEMPO 0503/0514 1500 -SGDZ BKN002


**********************************************
2022/12/04 18:09
TAF EGPK 041654Z 0418/0518 07007KT 9999 FEW030 PROB30
TEMPO 0506/0512 BKN012


**********************************************
2022/12/04 18:09
TAF EGLL 041653Z 0418/0524 04009KT 9999 BKN018
TEMPO 0420/0422 BKN009
BECMG 0422/0501 BKN010 PROB30
TEMPO 0501/0506 BKN008
BECMG 0507/0510 SCT030


**********************************************
2022/12/04 18:09
TAF EGKK 041654Z 0418/0524 06009KT 9999 SCT020
BECMG 0418/0421 BKN012
TEMPO 0420/0510 6000 -RADZ BKN006 PROB30
TEMPO 0422/0509 3000 RADZ BKN003
BECMG 0509/0512 SCT016
TEMPO 0512/0518 BKN012


**********************************************
2022/12/04 18:09
TAF EGFF 041656Z 0418/0518 06010KT 9999 BKN020 PROB40
TEMPO 0418/0508 8000 BKN014
TEMPO 0508/0518 BKN012


**********************************************
2022/12/04 18:09
TAF EGCC 041703Z 0418/0524 05006KT 9999 SCT020 PROB30
TEMPO 0418/0521 BKN012


**********************************************
2022/12/04 18:28
TAF EDDF 041700Z 0418/0524 03008KT 9000 OVC013
TEMPO 0418/0420 BKN015 PROB30
TEMPO 0418/0420 4000 -RAPL BR PROB30
TEMPO 0422/0501 4000 -SNRA BKN007
TEMPO 0501/0510 VRB03KT 4000 -DZ BR BKN006
BECMG 0506/0509 24004KT
BECMG 0512/0514 SCT012 OVC020
TEMPO 0517/0524 4000 -DZ BR SCT004 BKN012


**********************************************
2022/12/04 18:27
TAF TAF EBBR 041704Z 0418/0524 03005KT 7000 BKN014
BECMG 0418/0420 BKN007
TEMPO 0422/0518 2500 -SNRA OVC004 PROB40
TEMPO 0503/0509 0800 SN OVC002
BECMG 0518/0520 2000 -DZ BR OVC003


**********************************************